sensor_id;sensor_type;location;lat;lon;timestamp;pressure;altitude;pressure_sealevel;temperature;humidity
77639;BME280;66802;52.574;14.398;2023-06-14T03:01:25;101867.44;;;11.69;71.47
77639;BME280;66802;52.574;14.398;2023-06-14T03:04:01;101867.91;;;11.75;71.43
77639;BME280;66802;52.574;14.398;2023-06-14T03:06:29;101871.25;;;11.78;71.59
77639;BME280;66802;52.574;14.398;2023-06-14T03:08:59;101864.69;;;11.81;71.45
77639;BME280;66802;52.574;14.398;2023-06-14T03:11:27;101868.13;;;11.83;71.17
77639;BME280;66802;52.574;14.398;2023-06-14T03:13:53;101861.72;;;11.84;71.45
77639;BME280;66802;52.574;14.398;2023-06-14T03:16:19;101862.59;;;11.84;71.62
77639;BME280;66802;52.574;14.398;2023-06-14T03:18:48;101866.28;;;11.83;71.53
77639;BME280;66802;52.574;14.398;2023-06-14T03:21:14;101863.56;;;11.83;71.61
77639;BME280;66802;52.574;14.398;2023-06-14T03:23:42;101865.16;;;11.86;71.48
77639;BME280;66802;52.574;14.398;2023-06-14T03:26:07;101868.91;;;11.94;71.43
77639;BME280;66802;52.574;14.398;2023-06-14T03:28:33;101870.63;;;11.95;71.49
77639;BME280;66802;52.574;14.398;2023-06-14T03:30:59;101873.50;;;12.03;71.84
77639;BME280;66802;52.574;14.398;2023-06-14T03:33:25;101864.97;;;12.08;71.95
77639;BME280;66802;52.574;14.398;2023-06-14T03:35:51;101866.13;;;12.15;71.74
77639;BME280;66802;52.574;14.398;2023-06-14T03:38:17;101862.59;;;12.24;71.75
77639;BME280;66802;52.574;14.398;2023-06-14T03:40:42;101869.06;;;12.33;71.66
77639;BME280;66802;52.574;14.398;2023-06-14T03:43:09;101875.16;;;12.35;71.30
77639;BME280;66802;52.574;14.398;2023-06-14T03:45:35;101879.06;;;12.42;71.44
77639;BME280;66802;52.574;14.398;2023-06-14T03:48:01;101880.06;;;12.51;71.19
77639;BME280;66802;52.574;14.398;2023-06-14T03:50:26;101891.34;;;12.56;71.46
77639;BME280;66802;52.574;14.398;2023-06-14T03:52:52;101876.66;;;12.58;70.88
77639;BME280;66802;52.574;14.398;2023-06-14T03:55:18;101884.81;;;12.68;70.81
77639;BME280;66802;52.574;14.398;2023-06-14T03:57:44;101888.53;;;12.76;70.68
77639;BME280;66802;52.574;14.398;2023-06-14T04:00:10;101890.41;;;12.86;70.09
77639;BME280;66802;52.574;14.398;2023-06-14T04:02:37;101888.53;;;12.76;70.14
77639;BME280;66802;52.574;14.398;2023-06-14T04:05:03;101890.09;;;12.69;70.56
77639;BME280;66802;52.574;14.398;2023-06-14T04:07:29;101896.22;;;12.71;71.42
77639;BME280;66802;52.574;14.398;2023-06-14T04:09:55;101892.78;;;12.69;70.79
77639;BME280;66802;52.574;14.398;2023-06-14T04:12:20;101892.94;;;12.68;70.98
77639;BME280;66802;52.574;14.398;2023-06-14T04:14:46;101895.63;;;12.68;71.36
77639;BME280;66802;52.574;14.398;2023-06-14T04:17:12;101899.06;;;12.60;71.21
77639;BME280;66802;52.574;14.398;2023-06-14T04:19:37;101901.03;;;12.58;71.30
77639;BME280;66802;52.574;14.398;2023-06-14T04:22:03;101900.78;;;12.61;71.90
77639;BME280;66802;52.574;14.398;2023-06-14T04:24:29;101898.78;;;12.63;71.96
77639;BME280;66802;52.574;14.398;2023-06-14T04:26:58;101892.78;;;12.69;71.88
77639;BME280;66802;52.574;14.398;2023-06-14T04:29:24;101884.53;;;12.80;71.53
77639;BME280;66802;52.574;14.398;2023-06-14T04:31:54;101891.66;;;12.62;71.87
77639;BME280;66802;52.574;14.398;2023-06-14T04:34:20;101897.50;;;12.67;72.76
77639;BME280;66802;52.574;14.398;2023-06-14T04:36:47;101906.59;;;12.57;73.12
77639;BME280;66802;52.574;14.398;2023-06-14T04:39:20;101908.88;;;12.52;72.73
77639;BME280;66802;52.574;14.398;2023-06-14T04:41:46;101907.59;;;12.56;73.02
77639;BME280;66802;52.574;14.398;2023-06-14T04:44:13;101911.28;;;12.55;72.80
77639;BME280;66802;52.574;14.398;2023-06-14T04:46:39;101906.59;;;12.57;73.08
77639;BME280;66802;52.574;14.398;2023-06-14T04:49:17;101909.47;;;12.65;73.03
77639;BME280;66802;52.574;14.398;2023-06-14T04:51:44;101917.88;;;12.62;73.10
77639;BME280;66802;52.574;14.398;2023-06-14T04:54:11;101904.19;;;12.63;73.52
77639;BME280;66802;52.574;14.398;2023-06-14T04:56:42;101907.63;;;12.65;73.26
77639;BME280;66802;52.574;14.398;2023-06-14T04:59:09;101901.66;;;12.71;73.58
77639;BME280;66802;52.574;14.398;2023-06-14T05:01:36;101895.09;;;12.74;73.05
77639;BME280;66802;52.574;14.398;2023-06-14T05:04:03;101898.22;;;12.79;73.65
77639;BME280;66802;52.574;14.398;2023-06-14T05:06:29;101904.22;;;12.83;73.61
77639;BME280;66802;52.574;14.398;2023-06-14T05:08:55;101901.66;;;12.81;73.22
77639;BME280;66802;52.574;14.398;2023-06-14T05:11:21;101900.81;;;12.80;73.26
77639;BME280;66802;52.574;14.398;2023-06-14T05:13:49;101899.66;;;12.83;73.27
77639;BME280;66802;52.574;14.398;2023-06-14T05:16:15;101906.94;;;12.83;73.10
77639;BME280;66802;52.574;14.398;2023-06-14T05:18:42;101907.53;;;12.86;73.03
77639;BME280;66802;52.574;14.398;2023-06-14T05:21:08;101913.50;;;12.90;73.07
77639;BME280;66802;52.574;14.398;2023-06-14T05:23:34;101918.38;;;12.86;73.05
77639;BME280;66802;52.574;14.398;2023-06-14T05:25:59;101917.53;;;12.95;73.24
77639;BME280;66802;52.574;14.398;2023-06-14T05:28:25;101911.78;;;12.98;72.96
77639;BME280;66802;52.574;14.398;2023-06-14T05:30:51;101913.25;;;13.12;73.24
77639;BME280;66802;52.574;14.398;2023-06-14T05:33:17;101906.25;;;13.09;73.29
77639;BME280;66802;52.574;14.398;2023-06-14T05:35:42;101906.97;;;13.11;73.04
77639;BME280;66802;52.574;14.398;2023-06-14T05:38:08;101905.25;;;13.10;73.23
77639;BME280;66802;52.574;14.398;2023-06-14T05:40:34;101904.09;;;13.03;73.90
77639;BME280;66802;52.574;14.398;2023-06-14T05:42:59;101893.25;;;13.03;73.73
77639;BME280;66802;52.574;14.398;2023-06-14T05:45:25;101909.13;;;13.08;74.02
77639;BME280;66802;52.574;14.398;2023-06-14T05:47:50;101905.56;;;13.07;74.03
77639;BME280;66802;52.574;14.398;2023-06-14T05:50:16;101906.44;;;13.18;74.53
77639;BME280;66802;52.574;14.398;2023-06-14T05:52:42;101918.13;;;13.28;74.05
77639;BME280;66802;52.574;14.398;2023-06-14T05:55:08;101909.97;;;13.47;74.24
77639;BME280;66802;52.574;14.398;2023-06-14T05:57:34;101907.84;;;13.60;74.47
77639;BME280;66802;52.574;14.398;2023-06-14T05:59:59;101911.25;;;13.62;74.27
77639;BME280;66802;52.574;14.398;2023-06-14T06:02:25;101903.53;;;13.67;74.06
77639;BME280;66802;52.574;14.398;2023-06-14T06:04:50;101912.09;;;13.72;74.36
77639;BME280;66802;52.574;14.398;2023-06-14T06:07:16;101909.06;;;13.75;73.81
77639;BME280;66802;52.574;14.398;2023-06-14T06:09:41;101903.47;;;13.86;73.95
77639;BME280;66802;52.574;14.398;2023-06-14T06:12:07;101909.72;;;13.97;73.73
77639;BME280;66802;52.574;14.398;2023-06-14T06:14:33;101908.16;;;14.04;74.00
77639;BME280;66802;52.574;14.398;2023-06-14T06:16:58;101916.53;;;14.10;73.10
77639;BME280;66802;52.574;14.398;2023-06-14T06:19:24;101916.66;;;14.18;73.05
77639;BME280;66802;52.574;14.398;2023-06-14T06:21:50;101923.72;;;14.39;72.83
77639;BME280;66802;52.574;14.398;2023-06-14T06:24:16;101921.44;;;14.44;72.39
77639;BME280;66802;52.574;14.398;2023-06-14T06:26:41;101918.81;;;14.52;72.67
77639;BME280;66802;52.574;14.398;2023-06-14T06:29:07;101922.66;;;14.59;71.83
77639;BME280;66802;52.574;14.398;2023-06-14T06:31:33;101923.00;;;14.74;71.75
77639;BME280;66802;52.574;14.398;2023-06-14T06:33:58;101919.53;;;14.81;71.47
77639;BME280;66802;52.574;14.398;2023-06-14T06:36:24;101939.22;;;14.83;71.36
77639;BME280;66802;52.574;14.398;2023-06-14T06:38:50;101935.94;;;14.89;70.85
77639;BME280;66802;52.574;14.398;2023-06-14T06:41:15;101933.72;;;14.93;70.74
77639;BME280;66802;52.574;14.398;2023-06-14T06:43:41;101934.84;;;15.00;70.32
77639;BME280;66802;52.574;14.398;2023-06-14T06:46:07;101937.41;;;15.02;70.63
77639;BME280;66802;52.574;14.398;2023-06-14T06:48:32;101936.94;;;15.06;70.16
77639;BME280;66802;52.574;14.398;2023-06-14T06:50:58;101946.81;;;15.07;70.89
77639;BME280;66802;52.574;14.398;2023-06-14T06:53:23;101940.06;;;15.11;70.54
77639;BME280;66802;52.574;14.398;2023-06-14T06:55:49;101943.31;;;15.15;70.29
77639;BME280;66802;52.574;14.398;2023-06-14T06:58:14;101942.00;;;15.19;69.77
77639;BME280;66802;52.574;14.398;2023-06-14T07:00:40;101938.97;;;15.22;70.00
77639;BME280;66802;52.574;14.398;2023-06-14T07:03:06;101940.69;;;15.23;69.34
77639;BME280;66802;52.574;14.398;2023-06-14T07:05:32;101945.50;;;15.29;69.61
77639;BME280;66802;52.574;14.398;2023-06-14T07:07:58;101949.47;;;15.34;69.17
77639;BME280;66802;52.574;14.398;2023-06-14T07:10:24;101956.69;;;15.44;68.89
77639;BME280;66802;52.574;14.398;2023-06-14T07:12:52;101963.53;;;15.48;69.25
77639;BME280;66802;52.574;14.398;2023-06-14T07:15:18;101957.56;;;15.62;68.54
77639;BME280;66802;52.574;14.398;2023-06-14T07:17:43;101960.59;;;15.59;69.12
77639;BME280;66802;52.574;14.398;2023-06-14T07:20:09;101960.78;;;15.57;68.91
77639;BME280;66802;52.574;14.398;2023-06-14T07:22:41;101961.94;;;15.55;68.73
77639;BME280;66802;52.574;14.398;2023-06-14T07:25:11;101967.91;;;15.58;68.89
77639;BME280;66802;52.574;14.398;2023-06-14T07:27:43;101967.28;;;15.64;68.62
77639;BME280;66802;52.574;14.398;2023-06-14T07:30:09;101968.16;;;15.65;68.45
77639;BME280;66802;52.574;14.398;2023-06-14T07:32:36;101961.53;;;15.67;68.59
77639;BME280;66802;52.574;14.398;2023-06-14T07:35:01;101968.84;;;15.67;68.31
77639;BME280;66802;52.574;14.398;2023-06-14T07:37:28;101961.34;;;15.69;67.97
77639;BME280;66802;52.574;14.398;2023-06-14T07:39:54;101966.34;;;15.74;67.94
77639;BME280;66802;52.574;14.398;2023-06-14T07:42:19;101963.31;;;15.77;67.62
77639;BME280;66802;52.574;14.398;2023-06-14T07:44:45;101957.72;;;15.78;68.11
77639;BME280;66802;52.574;14.398;2023-06-14T07:47:10;101967.41;;;15.81;68.09
77639;BME280;66802;52.574;14.398;2023-06-14T07:49:36;101967.97;;;15.84;67.84
77639;BME280;66802;52.574;14.398;2023-06-14T07:52:01;101971.06;;;15.89;68.08
77639;BME280;66802;52.574;14.398;2023-06-14T07:54:27;101978.19;;;16.08;67.06
77639;BME280;66802;52.574;14.398;2023-06-14T07:56:52;101975.91;;;16.03;67.23
77639;BME280;66802;52.574;14.398;2023-06-14T07:59:18;101976.06;;;16.02;67.36
77639;BME280;66802;52.574;14.398;2023-06-14T08:01:44;101974.59;;;16.08;67.10
77639;BME280;66802;52.574;14.398;2023-06-14T08:04:15;101970.53;;;16.12;67.29
77639;BME280;66802;52.574;14.398;2023-06-14T08:06:41;101979.25;;;16.15;67.19
77639;BME280;66802;52.574;14.398;2023-06-14T08:09:10;101968.19;;;16.17;67.54
77639;BME280;66802;52.574;14.398;2023-06-14T08:11:36;101973.69;;;16.25;66.89
77639;BME280;66802;52.574;14.398;2023-06-14T08:14:02;101971.50;;;16.28;66.06
77639;BME280;66802;52.574;14.398;2023-06-14T08:16:27;101972.53;;;16.35;66.86
77639;BME280;66802;52.574;14.398;2023-06-14T08:18:53;101969.81;;;16.35;66.92
77639;BME280;66802;52.574;14.398;2023-06-14T08:21:18;101969.03;;;16.43;66.43
77639;BME280;66802;52.574;14.398;2023-06-14T08:23:44;101972.66;;;16.52;66.15
77639;BME280;66802;52.574;14.398;2023-06-14T08:26:10;101972.84;;;16.58;66.04
77639;BME280;66802;52.574;14.398;2023-06-14T08:28:36;101967.78;;;16.63;65.31
77639;BME280;66802;52.574;14.398;2023-06-14T08:31:01;101966.09;;;16.62;65.39
77639;BME280;66802;52.574;14.398;2023-06-14T08:33:27;101965.06;;;16.63;65.48
77639;BME280;66802;52.574;14.398;2023-06-14T08:35:53;101974.78;;;16.66;65.68
77639;BME280;66802;52.574;14.398;2023-06-14T08:38:19;101969.88;;;16.77;65.36
77639;BME280;66802;52.574;14.398;2023-06-14T08:40:48;101975.00;;;16.81;64.69
77639;BME280;66802;52.574;14.398;2023-06-14T08:43:15;101975.47;;;16.68;64.18
77639;BME280;66802;52.574;14.398;2023-06-14T08:45:41;101975.84;;;16.73;64.25
77639;BME280;66802;52.574;14.398;2023-06-14T08:48:07;101974.81;;;16.74;64.86
77639;BME280;66802;52.574;14.398;2023-06-14T08:50:34;101974.31;;;16.78;64.80
77639;BME280;66802;52.574;14.398;2023-06-14T08:53:02;101978.78;;;16.88;64.25
77639;BME280;66802;52.574;14.398;2023-06-14T08:55:30;101981.56;;;17.04;63.70
77639;BME280;66802;52.574;14.398;2023-06-14T08:57:57;101972.53;;;17.11;63.62
77639;BME280;66802;52.574;14.398;2023-06-14T09:00:27;101972.53;;;17.11;63.56
77639;BME280;66802;52.574;14.398;2023-06-14T09:02:53;101960.81;;;17.19;62.38
77639;BME280;66802;52.574;14.398;2023-06-14T09:05:27;101974.63;;;17.18;62.84
77639;BME280;66802;52.574;14.398;2023-06-14T09:07:53;101972.75;;;17.26;63.16
77639;BME280;66802;52.574;14.398;2023-06-14T09:10:22;101981.28;;;17.31;62.70
77639;BME280;66802;52.574;14.398;2023-06-14T09:12:48;101983.34;;;17.37;61.74
77639;BME280;66802;52.574;14.398;2023-06-14T09:15:13;101977.91;;;17.45;60.69
77639;BME280;66802;52.574;14.398;2023-06-14T09:17:40;101985.75;;;17.48;61.03
77639;BME280;66802;52.574;14.398;2023-06-14T09:20:08;101988.81;;;17.45;60.77
77639;BME280;66802;52.574;14.398;2023-06-14T09:22:43;101987.63;;;17.40;60.65
77639;BME280;66802;52.574;14.398;2023-06-14T09:25:09;101988.66;;;17.39;61.34
77639;BME280;66802;52.574;14.398;2023-06-14T09:27:34;101986.63;;;17.41;61.73
77639;BME280;66802;52.574;14.398;2023-06-14T09:30:03;101988.13;;;17.43;60.89
77639;BME280;66802;52.574;14.398;2023-06-14T09:32:29;101984.38;;;17.52;60.60
77639;BME280;66802;52.574;14.398;2023-06-14T09:34:55;101989.34;;;17.57;60.69
77639;BME280;66802;52.574;14.398;2023-06-14T09:37:31;101985.97;;;17.63;60.50
77639;BME280;66802;52.574;14.398;2023-06-14T09:39:57;101980.34;;;17.73;60.43
77639;BME280;66802;52.574;14.398;2023-06-14T09:42:23;101995.34;;;17.77;59.51
77639;BME280;66802;52.574;14.398;2023-06-14T09:44:55;101989.72;;;17.78;59.70
77639;BME280;66802;52.574;14.398;2023-06-14T09:47:22;101992.63;;;17.85;59.23
77639;BME280;66802;52.574;14.398;2023-06-14T09:49:48;101979.16;;;17.83;59.79
77639;BME280;66802;52.574;14.398;2023-06-14T09:52:18;101987.16;;;17.77;60.00
77639;BME280;66802;52.574;14.398;2023-06-14T09:54:48;101986.66;;;17.81;60.12
77639;BME280;66802;52.574;14.398;2023-06-14T09:57:17;101989.03;;;18.01;60.15
77639;BME280;66802;52.574;14.398;2023-06-14T09:59:47;101981.13;;;18.22;58.79
77639;BME280;66802;52.574;14.398;2023-06-14T10:02:26;101976.00;;;18.35;57.90
77639;BME280;66802;52.574;14.398;2023-06-14T10:05:06;101978.00;;;18.49;57.46
77639;BME280;66802;52.574;14.398;2023-06-14T10:07:38;101976.81;;;18.44;56.76
77639;BME280;66802;52.574;14.398;2023-06-14T10:10:05;101964.28;;;18.66;57.58
77639;BME280;66802;52.574;14.398;2023-06-14T10:12:31;101962.66;;;18.87;56.62
77639;BME280;66802;52.574;14.398;2023-06-14T10:14:58;101955.19;;;19.04;55.69
77639;BME280;66802;52.574;14.398;2023-06-14T10:23:13;101959.31;;;19.31;54.70
77639;BME280;66802;52.574;14.398;2023-06-14T10:25:42;101956.44;;;19.47;54.48
77639;BME280;66802;52.574;14.398;2023-06-14T10:28:18;101952.47;;;19.27;54.77
77639;BME280;66802;52.574;14.398;2023-06-14T10:33:33;101945.44;;;19.78;53.12
77639;BME280;66802;52.574;14.398;2023-06-14T10:36:09;101947.38;;;20.07;52.70
77639;BME280;66802;52.574;14.398;2023-06-14T10:38:37;101937.94;;;20.24;53.10
77639;BME280;66802;52.574;14.398;2023-06-14T10:41:04;101930.06;;;20.44;52.84
77639;BME280;66802;52.574;14.398;2023-06-14T10:43:31;101920.56;;;20.47;51.89
77639;BME280;66802;52.574;14.398;2023-06-14T10:46:18;101928.72;;;20.55;51.49
77639;BME280;66802;52.574;14.398;2023-06-14T10:48:47;101919.97;;;20.66;50.37
77639;BME280;66802;52.574;14.398;2023-06-14T10:51:19;101921.81;;;20.95;50.02
77639;BME280;66802;52.574;14.398;2023-06-14T10:53:49;101918.22;;;21.30;50.24
77639;BME280;66802;52.574;14.398;2023-06-14T10:56:32;101921.81;;;21.52;50.00
77639;BME280;66802;52.574;14.398;2023-06-14T10:58:58;101915.72;;;21.57;47.92
77639;BME280;66802;52.574;14.398;2023-06-14T11:01:35;101914.47;;;21.17;47.58
77639;BME280;66802;52.574;14.398;2023-06-14T11:04:09;101915.47;;;21.30;48.91
77639;BME280;66802;52.574;14.398;2023-06-14T11:06:50;101913.00;;;21.63;49.12
77639;BME280;66802;52.574;14.398;2023-06-14T11:09:47;101910.56;;;21.75;47.98
77639;BME280;66802;52.574;14.398;2023-06-14T11:12:21;101905.88;;;21.69;48.03
77639;BME280;66802;52.574;14.398;2023-06-14T11:14:48;101911.13;;;21.64;47.94
77639;BME280;66802;52.574;14.398;2023-06-14T11:17:13;101907.13;;;21.66;47.89
77639;BME280;66802;52.574;14.398;2023-06-14T11:19:39;101899.19;;;21.78;48.13
77639;BME280;66802;52.574;14.398;2023-06-14T11:22:05;101893.06;;;22.04;48.02
77639;BME280;66802;52.574;14.398;2023-06-14T11:24:32;101899.38;;;22.32;47.14
77639;BME280;66802;52.574;14.398;2023-06-14T11:26:58;101890.72;;;22.42;46.32
77639;BME280;66802;52.574;14.398;2023-06-14T11:29:23;101890.34;;;22.51;46.10
77639;BME280;66802;52.574;14.398;2023-06-14T11:31:50;101887.91;;;22.70;45.66
77639;BME280;66802;52.574;14.398;2023-06-14T11:34:16;101884.50;;;22.68;45.68
77639;BME280;66802;52.574;14.398;2023-06-14T11:36:42;101878.03;;;22.95;45.46
77639;BME280;66802;52.574;14.398;2023-06-14T11:39:08;101879.09;;;22.94;47.14
77639;BME280;66802;52.574;14.398;2023-06-14T11:41:38;101881.28;;;23.12;42.89
77639;BME280;66802;52.574;14.398;2023-06-14T11:44:04;101878.72;;;23.10;42.62
77639;BME280;66802;52.574;14.398;2023-06-14T11:46:30;101875.97;;;23.10;41.54
77639;BME280;66802;52.574;14.398;2023-06-14T11:48:56;101880.63;;;23.16;42.31
77639;BME280;66802;52.574;14.398;2023-06-14T11:51:21;101875.97;;;23.10;41.71
77639;BME280;66802;52.574;14.398;2023-06-14T11:53:47;101869.88;;;22.67;43.10
77639;BME280;66802;52.574;14.398;2023-06-14T11:56:13;101871.69;;;22.88;43.23
77639;BME280;66802;52.574;14.398;2023-06-14T11:58:39;101865.16;;;23.02;43.67
77639;BME280;66802;52.574;14.398;2023-06-14T12:01:05;101869.56;;;22.97;43.82
77639;BME280;66802;52.574;14.398;2023-06-14T12:03:31;101866.84;;;23.03;44.36
77639;BME280;66802;52.574;14.398;2023-06-14T12:06:07;101860.06;;;22.92;43.73
77639;BME280;66802;52.574;14.398;2023-06-14T12:08:38;101848.22;;;23.12;43.64
77639;BME280;66802;52.574;14.398;2023-06-14T12:11:11;101856.69;;;23.17;42.92
77639;BME280;66802;52.574;14.398;2023-06-14T12:13:41;101851.41;;;23.22;43.61
77639;BME280;66802;52.574;14.398;2023-06-14T12:16:09;101850.34;;;23.49;42.37
77639;BME280;66802;52.574;14.398;2023-06-14T12:18:36;101854.63;;;23.65;41.80
77639;BME280;66802;52.574;14.398;2023-06-14T12:21:06;101843.34;;;23.80;41.79
77639;BME280;66802;52.574;14.398;2023-06-14T12:23:48;101831.84;;;24.02;40.64
77639;BME280;66802;52.574;14.398;2023-06-14T12:26:16;101832.44;;;24.24;40.88
77639;BME280;66802;52.574;14.398;2023-06-14T12:28:45;101833.28;;;24.18;40.73
77639;BME280;66802;52.574;14.398;2023-06-14T12:31:12;101830.53;;;24.18;41.98
77639;BME280;66802;52.574;14.398;2023-06-14T12:33:39;101822.50;;;24.03;40.14
77639;BME280;66802;52.574;14.398;2023-06-14T12:36:08;101825.50;;;23.95;40.10
77639;BME280;66802;52.574;14.398;2023-06-14T12:38:34;101822.75;;;23.95;41.28
77639;BME280;66802;52.574;14.398;2023-06-14T12:41:00;101829.06;;;24.02;41.91
77639;BME280;66802;52.574;14.398;2023-06-14T12:43:26;101827.44;;;23.82;39.21
77639;BME280;66802;52.574;14.398;2023-06-14T12:45:52;101817.44;;;24.00;40.39
77639;BME280;66802;52.574;14.398;2023-06-14T12:48:17;101825.00;;;24.25;40.99
77639;BME280;66802;52.574;14.398;2023-06-14T12:50:43;101813.34;;;24.23;37.45
77639;BME280;66802;52.574;14.398;2023-06-14T12:53:08;101815.34;;;24.47;36.98
77639;BME280;66802;52.574;14.398;2023-06-14T12:55:34;101808.97;;;24.53;36.03
77639;BME280;66802;52.574;14.398;2023-06-14T12:58:00;101810.91;;;24.46;35.70
77639;BME280;66802;52.574;14.398;2023-06-14T13:00:26;101799.25;;;24.37;36.59
77639;BME280;66802;52.574;14.398;2023-06-14T13:02:52;101800.53;;;24.42;36.22
77639;BME280;66802;52.574;14.398;2023-06-14T13:05:18;101799.22;;;24.51;36.26
77639;BME280;66802;52.574;14.398;2023-06-14T13:07:44;101787.13;;;24.45;36.92
77639;BME280;66802;52.574;14.398;2023-06-14T13:10:11;101788.91;;;24.33;36.82
77639;BME280;66802;52.574;14.398;2023-06-14T13:12:36;101800.69;;;24.47;36.25
77639;BME280;66802;52.574;14.398;2023-06-14T13:15:02;101793.38;;;24.21;36.60
77639;BME280;66802;52.574;14.398;2023-06-14T13:17:28;101788.44;;;24.36;37.73
77639;BME280;66802;52.574;14.398;2023-06-14T13:19:53;101794.00;;;24.29;37.41
77639;BME280;66802;52.574;14.398;2023-06-14T13:22:19;101790.59;;;24.27;37.97
77639;BME280;66802;52.574;14.398;2023-06-14T13:24:45;101787.22;;;24.19;37.41
77639;BME280;66802;52.574;14.398;2023-06-14T13:27:10;101787.47;;;24.11;38.39
77639;BME280;66802;52.574;14.398;2023-06-14T13:29:36;101777.50;;;24.03;37.73
77639;BME280;66802;52.574;14.398;2023-06-14T13:32:03;101780.38;;;23.77;37.72
77639;BME280;66802;52.574;14.398;2023-06-14T13:34:28;101776.72;;;23.89;37.73
77639;BME280;66802;52.574;14.398;2023-06-14T13:36:54;101781.78;;;23.99;37.25
77639;BME280;66802;52.574;14.398;2023-06-14T13:39:20;101771.88;;;23.72;37.34
77639;BME280;66802;52.574;14.398;2023-06-14T13:41:46;101774.66;;;23.58;37.76
77639;BME280;66802;52.574;14.398;2023-06-14T13:44:11;101758.75;;;23.67;36.93
77639;BME280;66802;52.574;14.398;2023-06-14T13:46:39;101760.00;;;23.71;38.06
77639;BME280;66802;52.574;14.398;2023-06-14T13:49:05;101761.69;;;23.79;36.62
77639;BME280;66802;52.574;14.398;2023-06-14T13:51:31;101767.47;;;23.31;35.73
77639;BME280;66802;52.574;14.398;2023-06-14T13:53:57;101765.31;;;22.93;37.58
77639;BME280;66802;52.574;14.398;2023-06-14T13:56:23;101766.41;;;23.12;37.80
77639;BME280;66802;52.574;14.398;2023-06-14T13:58:49;101765.13;;;23.41;36.56
77639;BME280;66802;52.574;14.398;2023-06-14T14:01:15;101765.97;;;23.55;36.34
77639;BME280;66802;52.574;14.398;2023-06-14T14:03:43;101765.53;;;23.64;36.71
77639;BME280;66802;52.574;14.398;2023-06-14T14:06:10;101755.53;;;23.70;36.47
77639;BME280;66802;52.574;14.398;2023-06-14T14:08:36;101751.94;;;23.70;36.73
77639;BME280;66802;52.574;14.398;2023-06-14T14:11:01;101759.16;;;23.77;37.38
77639;BME280;66802;52.574;14.398;2023-06-14T14:13:27;101755.16;;;23.27;36.93
77639;BME280;66802;52.574;14.398;2023-06-14T14:15:53;101749.22;;;23.37;37.67
77639;BME280;66802;52.574;14.398;2023-06-14T14:18:19;101757.06;;;23.53;37.67
77639;BME280;66802;52.574;14.398;2023-06-14T14:20:48;101754.06;;;23.74;37.67
77639;BME280;66802;52.574;14.398;2023-06-14T14:23:14;101759.16;;;23.77;37.04
77639;BME280;66802;52.574;14.398;2023-06-14T14:25:40;101749.34;;;23.81;36.23
77639;BME280;66802;52.574;14.398;2023-06-14T14:28:05;101742.59;;;23.77;36.38
77639;BME280;66802;52.574;14.398;2023-06-14T14:30:31;101748.97;;;23.78;36.45
77639;BME280;66802;52.574;14.398;2023-06-14T14:32:58;101743.81;;;23.94;35.93
77639;BME280;66802;52.574;14.398;2023-06-14T14:35:23;101735.91;;;24.05;36.02
77639;BME280;66802;52.574;14.398;2023-06-14T14:37:51;101741.41;;;24.11;35.60
77639;BME280;66802;52.574;14.398;2023-06-14T14:40:17;101748.38;;;24.14;34.73
77639;BME280;66802;52.574;14.398;2023-06-14T14:42:42;101739.47;;;24.18;34.30
77639;BME280;66802;52.574;14.398;2023-06-14T14:45:08;101739.88;;;24.15;34.18
77639;BME280;66802;52.574;14.398;2023-06-14T14:47:34;101735.19;;;24.29;35.02
77639;BME280;66802;52.574;14.398;2023-06-14T14:49:59;101739.66;;;24.30;34.10
77639;BME280;66802;52.574;14.398;2023-06-14T14:52:25;101734.72;;;24.38;34.14
77639;BME280;66802;52.574;14.398;2023-06-14T14:54:52;101737.34;;;24.58;33.66
77639;BME280;66802;52.574;14.398;2023-06-14T14:57:18;101739.53;;;24.81;33.91
77639;BME280;66802;52.574;14.398;2023-06-14T14:59:43;101741.31;;;24.69;33.12
77639;BME280;66802;52.574;14.398;2023-06-14T15:02:09;101745.91;;;24.50;33.13
77639;BME280;66802;52.574;14.398;2023-06-14T15:04:35;101746.66;;;24.32;33.41
77639;BME280;66802;52.574;14.398;2023-06-14T15:07:01;101749.00;;;24.29;33.84
77639;BME280;66802;52.574;14.398;2023-06-14T15:09:27;101748.56;;;24.25;33.45
77639;BME280;66802;52.574;14.398;2023-06-14T15:11:52;101754.38;;;24.11;33.89
77639;BME280;66802;52.574;14.398;2023-06-14T15:14:18;101745.25;;;24.03;34.17
77639;BME280;66802;52.574;14.398;2023-06-14T15:16:43;101749.97;;;23.96;34.35
77639;BME280;66802;52.574;14.398;2023-06-14T15:19:09;101753.19;;;23.87;34.76
77639;BME280;66802;52.574;14.398;2023-06-14T15:21:35;101758.31;;;23.77;35.82
77639;BME280;66802;52.574;14.398;2023-06-14T15:24:01;101754.50;;;23.58;36.95
77639;BME280;66802;52.574;14.398;2023-06-14T15:26:27;101751.75;;;23.58;36.94
77639;BME280;66802;52.574;14.398;2023-06-14T15:28:54;101743.91;;;23.68;36.72
77639;BME280;66802;52.574;14.398;2023-06-14T15:31:19;101748.34;;;23.62;37.33
77639;BME280;66802;52.574;14.398;2023-06-14T15:33:45;101746.66;;;23.61;37.67
77639;BME280;66802;52.574;14.398;2023-06-14T15:36:11;101745.38;;;23.64;37.46
77639;BME280;66802;52.574;14.398;2023-06-14T15:38:36;101745.19;;;23.65;36.64
77639;BME280;66802;52.574;14.398;2023-06-14T15:41:02;101751.69;;;23.84;36.45
77639;BME280;66802;52.574;14.398;2023-06-14T15:43:28;101744.22;;;23.98;35.78
77639;BME280;66802;52.574;14.398;2023-06-14T15:45:54;101742.06;;;24.07;36.16
77639;BME280;66802;52.574;14.398;2023-06-14T15:48:19;101738.66;;;24.05;35.79